sensor_id;sensor_type;location;lat;lon;timestamp;temperature;humidity
6333;DHT22;3199;49.102;8.856;2024-01-30T00:00:02;1.70;99.90
6333;DHT22;3199;49.102;8.856;2024-01-30T00:02:29;1.70;99.90
6333;DHT22;3199;49.102;8.856;2024-01-30T00:04:55;1.70;99.90
6333;DHT22;3199;49.102;8.856;2024-01-30T00:07:20;1.70;99.90
6333;DHT22;3199;49.102;8.856;2024-01-30T00:09:49;1.70;99.90
6333;DHT22;3199;49.102;8.856;2024-01-30T00:12:14;1.70;99.90
6333;DHT22;3199;49.102;8.856;2024-01-30T00:14:42;1.70;99.90
6333;DHT22;3199;49.102;8.856;2024-01-30T00:17:08;1.70;99.90
6333;DHT22;3199;49.102;8.856;2024-01-30T00:19:34;1.60;99.90
6333;DHT22;3199;49.102;8.856;2024-01-30T00:21:59;1.60;99.90
6333;DHT22;3199;49.102;8.856;2024-01-30T00:24:25;1.60;99.90
6333;DHT22;3199;49.102;8.856;2024-01-30T00:26:50;1.60;99.90
6333;DHT22;3199;49.102;8.856;2024-01-30T00:29:17;1.60;99.90
6333;DHT22;3199;49.102;8.856;2024-01-30T00:31:45;1.60;99.90
6333;DHT22;3199;49.102;8.856;2024-01-30T00:34:11;1.60;99.90
6333;DHT22;3199;49.102;8.856;2024-01-30T00:36:37;1.60;99.90
6333;DHT22;3199;49.102;8.856;2024-01-30T00:39:02;1.50;99.90
6333;DHT22;3199;49.102;8.856;2024-01-30T00:41:31;1.50;99.90
6333;DHT22;3199;49.102;8.856;2024-01-30T00:43:57;1.50;99.90
6333;DHT22;3199;49.102;8.856;2024-01-30T00:46:22;1.50;99.90
6333;DHT22;3199;49.102;8.856;2024-01-30T00:48:48;1.50;99.90
6333;DHT22;3199;49.102;8.856;2024-01-30T00:51:14;1.50;99.90
6333;DHT22;3199;49.102;8.856;2024-01-30T00:53:40;1.50;99.90
6333;DHT22;3199;49.102;8.856;2024-01-30T00:56:07;1.50;99.90
6333;DHT22;3199;49.102;8.856;2024-01-30T00:58:33;1.50;99.90
6333;DHT22;3199;49.102;8.856;2024-01-30T01:00:58;1.50;99.90
6333;DHT22;3199;49.102;8.856;2024-01-30T01:03:24;1.50;99.90
6333;DHT22;3199;49.102;8.856;2024-01-30T01:05:50;1.50;99.90
6333;DHT22;3199;49.102;8.856;2024-01-30T01:08:16;1.50;99.90
6333;DHT22;3199;49.102;8.856;2024-01-30T01:10:41;1.50;99.90
6333;DHT22;3199;49.102;8.856;2024-01-30T01:13:07;1.40;99.90
6333;DHT22;3199;49.102;8.856;2024-01-30T01:15:32;1.40;99.90
6333;DHT22;3199;49.102;8.856;2024-01-30T01:17:58;1.40;99.90
6333;DHT22;3199;49.102;8.856;2024-01-30T01:20:23;1.40;99.90
6333;DHT22;3199;49.102;8.856;2024-01-30T01:22:49;1.40;99.90
6333;DHT22;3199;49.102;8.856;2024-01-30T01:25:14;1.40;99.90
6333;DHT22;3199;49.102;8.856;2024-01-30T01:27:40;1.40;99.90
6333;DHT22;3199;49.102;8.856;2024-01-30T01:30:10;1.30;99.90
6333;DHT22;3199;49.102;8.856;2024-01-30T01:32:37;1.30;99.90
6333;DHT22;3199;49.102;8.856;2024-01-30T01:35:03;1.30;99.90
6333;DHT22;3199;49.102;8.856;2024-01-30T01:37:31;1.30;99.90
6333;DHT22;3199;49.102;8.856;2024-01-30T01:39:56;1.30;99.90
6333;DHT22;3199;49.102;8.856;2024-01-30T01:42:22;1.30;99.90
6333;DHT22;3199;49.102;8.856;2024-01-30T01:44:47;1.30;99.90
6333;DHT22;3199;49.102;8.856;2024-01-30T01:47:14;1.20;99.90
6333;DHT22;3199;49.102;8.856;2024-01-30T01:49:39;1.20;99.90
6333;DHT22;3199;49.102;8.856;2024-01-30T01:52:06;1.20;99.90
6333;DHT22;3199;49.102;8.856;2024-01-30T01:54:32;1.20;99.90
6333;DHT22;3199;49.102;8.856;2024-01-30T01:56:59;1.20;99.90
6333;DHT22;3199;49.102;8.856;2024-01-30T01:59:25;1.10;99.90
6333;DHT22;3199;49.102;8.856;2024-01-30T02:01:51;1.10;99.90
6333;DHT22;3199;49.102;8.856;2024-01-30T02:04:18;1.10;99.90
6333;DHT22;3199;49.102;8.856;2024-01-30T02:06:44;1.10;99.90
6333;DHT22;3199;49.102;8.856;2024-01-30T02:09:09;1.10;99.90
6333;DHT22;3199;49.102;8.856;2024-01-30T02:11:35;1.10;99.90
6333;DHT22;3199;49.102;8.856;2024-01-30T02:14:04;1.00;99.90
6333;DHT22;3199;49.102;8.856;2024-01-30T02:16:31;1.00;99.90
6333;DHT22;3199;49.102;8.856;2024-01-30T02:18:57;1.00;99.90
6333;DHT22;3199;49.102;8.856;2024-01-30T02:21:23;1.00;99.90
6333;DHT22;3199;49.102;8.856;2024-01-30T02:23:48;1.00;99.90
6333;DHT22;3199;49.102;8.856;2024-01-30T02:26:14;1.00;99.90
6333;DHT22;3199;49.102;8.856;2024-01-30T02:28:40;1.00;99.90
6333;DHT22;3199;49.102;8.856;2024-01-30T02:31:05;1.00;99.90
6333;DHT22;3199;49.102;8.856;2024-01-30T02:33:31;1.00;99.90
6333;DHT22;3199;49.102;8.856;2024-01-30T02:35:57;1.00;99.90
6333;DHT22;3199;49.102;8.856;2024-01-30T02:38:23;1.00;99.90
6333;DHT22;3199;49.102;8.856;2024-01-30T02:40:49;1.00;99.90
6333;DHT22;3199;49.102;8.856;2024-01-30T02:43:16;1.00;99.90
6333;DHT22;3199;49.102;8.856;2024-01-30T02:45:41;0.90;99.90
6333;DHT22;3199;49.102;8.856;2024-01-30T02:48:07;0.90;99.90
6333;DHT22;3199;49.102;8.856;2024-01-30T02:50:33;0.90;99.90
6333;DHT22;3199;49.102;8.856;2024-01-30T02:52:58;1.00;99.90
6333;DHT22;3199;49.102;8.856;2024-01-30T02:55:24;0.90;99.90
6333;DHT22;3199;49.102;8.856;2024-01-30T02:57:49;0.90;99.90
6333;DHT22;3199;49.102;8.856;2024-01-30T03:00:15;0.90;99.90
6333;DHT22;3199;49.102;8.856;2024-01-30T03:02:40;0.80;99.90
6333;DHT22;3199;49.102;8.856;2024-01-30T03:05:07;0.80;99.90
6333;DHT22;3199;49.102;8.856;2024-01-30T03:07:33;0.80;99.90
6333;DHT22;3199;49.102;8.856;2024-01-30T03:09:59;0.80;99.90
6333;DHT22;3199;49.102;8.856;2024-01-30T03:12:24;0.80;99.90
6333;DHT22;3199;49.102;8.856;2024-01-30T03:14:50;0.80;99.90
6333;DHT22;3199;49.102;8.856;2024-01-30T03:17:15;0.80;99.90
6333;DHT22;3199;49.102;8.856;2024-01-30T03:19:41;0.80;99.90
6333;DHT22;3199;49.102;8.856;2024-01-30T03:22:07;0.80;99.90
6333;DHT22;3199;49.102;8.856;2024-01-30T03:24:32;0.70;99.90
6333;DHT22;3199;49.102;8.856;2024-01-30T03:26:58;0.70;99.90
6333;DHT22;3199;49.102;8.856;2024-01-30T03:29:23;0.70;99.90
6333;DHT22;3199;49.102;8.856;2024-01-30T03:31:49;0.70;99.90
6333;DHT22;3199;49.102;8.856;2024-01-30T03:34:14;0.70;99.90
6333;DHT22;3199;49.102;8.856;2024-01-30T03:36:40;0.70;99.90
6333;DHT22;3199;49.102;8.856;2024-01-30T03:39:06;0.70;99.90
6333;DHT22;3199;49.102;8.856;2024-01-30T03:41:31;0.60;99.90
6333;DHT22;3199;49.102;8.856;2024-01-30T03:43:57;0.60;99.90
6333;DHT22;3199;49.102;8.856;2024-01-30T03:46:22;0.60;99.90
6333;DHT22;3199;49.102;8.856;2024-01-30T03:48:48;0.70;99.90
6333;DHT22;3199;49.102;8.856;2024-01-30T03:51:13;0.70;99.90
6333;DHT22;3199;49.102;8.856;2024-01-30T03:53:43;0.60;99.90
6333;DHT22;3199;49.102;8.856;2024-01-30T03:56:09;0.60;99.90
6333;DHT22;3199;49.102;8.856;2024-01-30T03:58:35;0.60;99.90
6333;DHT22;3199;49.102;8.856;2024-01-30T04:01:01;0.60;99.90
6333;DHT22;3199;49.102;8.856;2024-01-30T04:03:26;0.60;99.90
6333;DHT22;3199;49.102;8.856;2024-01-30T04:05:52;0.60;99.90
6333;DHT22;3199;49.102;8.856;2024-01-30T04:08:18;0.60;99.90
6333;DHT22;3199;49.102;8.856;2024-01-30T04:10:43;0.60;99.90
6333;DHT22;3199;49.102;8.856;2024-01-30T04:13:09;0.60;99.90
6333;DHT22;3199;49.102;8.856;2024-01-30T04:15:35;0.60;99.90
6333;DHT22;3199;49.102;8.856;2024-01-30T04:18:01;0.60;99.90
6333;DHT22;3199;49.102;8.856;2024-01-30T04:20:26;0.60;99.90
6333;DHT22;3199;49.102;8.856;2024-01-30T04:22:52;0.60;99.90
6333;DHT22;3199;49.102;8.856;2024-01-30T04:25:17;0.60;99.90
6333;DHT22;3199;49.102;8.856;2024-01-30T04:27:43;0.60;99.90
6333;DHT22;3199;49.102;8.856;2024-01-30T04:30:09;0.60;99.90
6333;DHT22;3199;49.102;8.856;2024-01-30T04:32:35;0.50;99.90
6333;DHT22;3199;49.102;8.856;2024-01-30T04:35:01;0.50;99.90
6333;DHT22;3199;49.102;8.856;2024-01-30T04:37:27;0.50;99.90
6333;DHT22;3199;49.102;8.856;2024-01-30T04:39:53;0.50;99.90
6333;DHT22;3199;49.102;8.856;2024-01-30T04:42:18;0.50;99.90
6333;DHT22;3199;49.102;8.856;2024-01-30T04:44:44;0.40;99.90
6333;DHT22;3199;49.102;8.856;2024-01-30T04:47:09;0.40;99.90
6333;DHT22;3199;49.102;8.856;2024-01-30T04:49:40;0.40;99.90
6333;DHT22;3199;49.102;8.856;2024-01-30T04:52:06;0.40;99.90
6333;DHT22;3199;49.102;8.856;2024-01-30T04:54:32;0.40;99.90
6333;DHT22;3199;49.102;8.856;2024-01-30T04:56:57;0.40;99.90
6333;DHT22;3199;49.102;8.856;2024-01-30T04:59:23;0.40;99.90
6333;DHT22;3199;49.102;8.856;2024-01-30T05:01:49;0.40;99.90
6333;DHT22;3199;49.102;8.856;2024-01-30T05:04:15;0.40;99.90
6333;DHT22;3199;49.102;8.856;2024-01-30T05:06:40;0.40;99.90
6333;DHT22;3199;49.102;8.856;2024-01-30T05:09:06;0.40;99.90
6333;DHT22;3199;49.102;8.856;2024-01-30T05:11:36;0.40;99.90
6333;DHT22;3199;49.102;8.856;2024-01-30T05:14:02;0.40;99.90
6333;DHT22;3199;49.102;8.856;2024-01-30T05:16:27;0.30;99.90
6333;DHT22;3199;49.102;8.856;2024-01-30T05:18:53;0.30;99.90
6333;DHT22;3199;49.102;8.856;2024-01-30T05:21:18;0.30;99.90
6333;DHT22;3199;49.102;8.856;2024-01-30T05:23:44;0.30;99.90
6333;DHT22;3199;49.102;8.856;2024-01-30T05:26:10;0.30;99.90
6333;DHT22;3199;49.102;8.856;2024-01-30T05:28:35;0.30;99.90
6333;DHT22;3199;49.102;8.856;2024-01-30T05:31:01;0.30;99.90
6333;DHT22;3199;49.102;8.856;2024-01-30T05:33:27;0.30;99.90
6333;DHT22;3199;49.102;8.856;2024-01-30T05:35:53;0.20;99.90
6333;DHT22;3199;49.102;8.856;2024-01-30T05:38:20;0.20;99.90
6333;DHT22;3199;49.102;8.856;2024-01-30T05:40:45;0.20;99.90
6333;DHT22;3199;49.102;8.856;2024-01-30T05:43:11;0.20;99.90
6333;DHT22;3199;49.102;8.856;2024-01-30T05:45:37;0.20;99.90
6333;DHT22;3199;49.102;8.856;2024-01-30T05:48:03;0.20;99.90
6333;DHT22;3199;49.102;8.856;2024-01-30T05:50:28;0.20;99.90
6333;DHT22;3199;49.102;8.856;2024-01-30T05:52:54;0.20;99.90
6333;DHT22;3199;49.102;8.856;2024-01-30T05:55:20;0.20;99.90
6333;DHT22;3199;49.102;8.856;2024-01-30T05:57:45;0.20;99.90
6333;DHT22;3199;49.102;8.856;2024-01-30T06:00:11;0.20;99.90
6333;DHT22;3199;49.102;8.856;2024-01-30T06:02:36;0.20;99.90
6333;DHT22;3199;49.102;8.856;2024-01-30T06:05:02;0.20;99.90
6333;DHT22;3199;49.102;8.856;2024-01-30T06:07:28;0.20;99.90
6333;DHT22;3199;49.102;8.856;2024-01-30T06:09:53;0.20;99.90
6333;DHT22;3199;49.102;8.856;2024-01-30T06:12:19;0.20;99.90
6333;DHT22;3199;49.102;8.856;2024-01-30T06:14:45;0.20;99.90
6333;DHT22;3199;49.102;8.856;2024-01-30T06:17:10;0.20;99.90
6333;DHT22;3199;49.102;8.856;2024-01-30T06:19:37;0.20;99.90
6333;DHT22;3199;49.102;8.856;2024-01-30T06:22:04;0.10;99.90
6333;DHT22;3199;49.102;8.856;2024-01-30T06:24:29;0.10;99.90
6333;DHT22;3199;49.102;8.856;2024-01-30T06:26:55;0.20;99.90
6333;DHT22;3199;49.102;8.856;2024-01-30T06:29:20;0.20;99.90
6333;DHT22;3199;49.102;8.856;2024-01-30T06:31:46;0.20;99.90
6333;DHT22;3199;49.102;8.856;2024-01-30T06:34:12;0.20;99.90
6333;DHT22;3199;49.102;8.856;2024-01-30T06:36:37;0.20;99.90
6333;DHT22;3199;49.102;8.856;2024-01-30T06:39:04;0.10;99.90
6333;DHT22;3199;49.102;8.856;2024-01-30T06:41:29;0.20;99.90
6333;DHT22;3199;49.102;8.856;2024-01-30T06:43:55;0.20;99.90
6333;DHT22;3199;49.102;8.856;2024-01-30T06:46:21;0.20;99.90
6333;DHT22;3199;49.102;8.856;2024-01-30T06:48:47;0.20;99.90
6333;DHT22;3199;49.102;8.856;2024-01-30T06:51:12;0.20;99.90
6333;DHT22;3199;49.102;8.856;2024-01-30T06:53:38;0.20;99.90
6333;DHT22;3199;49.102;8.856;2024-01-30T06:56:04;0.20;99.90
6333;DHT22;3199;49.102;8.856;2024-01-30T06:58:29;0.20;99.90
6333;DHT22;3199;49.102;8.856;2024-01-30T07:00:56;0.20;99.90
6333;DHT22;3199;49.102;8.856;2024-01-30T07:03:21;0.20;99.90
6333;DHT22;3199;49.102;8.856;2024-01-30T07:05:47;0.20;99.90
6333;DHT22;3199;49.102;8.856;2024-01-30T07:08:13;0.20;99.90
6333;DHT22;3199;49.102;8.856;2024-01-30T07:10:38;0.20;99.90
6333;DHT22;3199;49.102;8.856;2024-01-30T07:13:04;0.30;99.90
6333;DHT22;3199;49.102;8.856;2024-01-30T07:15:31;0.30;99.90
6333;DHT22;3199;49.102;8.856;2024-01-30T07:17:56;0.30;99.90
6333;DHT22;3199;49.102;8.856;2024-01-30T07:20:22;0.30;99.90
6333;DHT22;3199;49.102;8.856;2024-01-30T07:22:48;0.30;99.90
6333;DHT22;3199;49.102;8.856;2024-01-30T07:25:13;0.40;99.90
6333;DHT22;3199;49.102;8.856;2024-01-30T07:27:39;0.40;99.90
6333;DHT22;3199;49.102;8.856;2024-01-30T07:30:05;0.40;99.90
6333;DHT22;3199;49.102;8.856;2024-01-30T07:32:31;0.40;99.90
6333;DHT22;3199;49.102;8.856;2024-01-30T07:34:57;0.40;99.90
6333;DHT22;3199;49.102;8.856;2024-01-30T07:37:22;0.40;99.90
6333;DHT22;3199;49.102;8.856;2024-01-30T07:39:48;0.50;99.90
6333;DHT22;3199;49.102;8.856;2024-01-30T07:42:13;0.50;99.90
6333;DHT22;3199;49.102;8.856;2024-01-30T07:44:39;0.60;99.90
6333;DHT22;3199;49.102;8.856;2024-01-30T07:47:05;0.70;99.90
6333;DHT22;3199;49.102;8.856;2024-01-30T07:49:30;0.70;99.90
6333;DHT22;3199;49.102;8.856;2024-01-30T07:51:56;0.80;99.90
6333;DHT22;3199;49.102;8.856;2024-01-30T07:54:21;0.90;99.90
6333;DHT22;3199;49.102;8.856;2024-01-30T07:56:47;1.00;99.90
6333;DHT22;3199;49.102;8.856;2024-01-30T07:59:12;1.00;99.90
6333;DHT22;3199;49.102;8.856;2024-01-30T08:01:38;1.20;99.90
6333;DHT22;3199;49.102;8.856;2024-01-30T08:04:04;1.20;99.90
6333;DHT22;3199;49.102;8.856;2024-01-30T08:06:29;1.40;99.90
6333;DHT22;3199;49.102;8.856;2024-01-30T08:08:55;1.50;99.90
6333;DHT22;3199;49.102;8.856;2024-01-30T08:11:22;1.50;99.90
6333;DHT22;3199;49.102;8.856;2024-01-30T08:13:52;1.60;99.90
6333;DHT22;3199;49.102;8.856;2024-01-30T08:16:17;1.60;99.90
6333;DHT22;3199;49.102;8.856;2024-01-30T08:18:43;1.70;99.90
6333;DHT22;3199;49.102;8.856;2024-01-30T08:21:09;1.80;99.90
6333;DHT22;3199;49.102;8.856;2024-01-30T08:23:34;1.90;99.90
6333;DHT22;3199;49.102;8.856;2024-01-30T08:26:00;2.00;99.90
6333;DHT22;3199;49.102;8.856;2024-01-30T08:28:25;2.10;99.90
6333;DHT22;3199;49.102;8.856;2024-01-30T08:30:52;2.20;99.90
6333;DHT22;3199;49.102;8.856;2024-01-30T08:33:17;2.30;99.90
6333;DHT22;3199;49.102;8.856;2024-01-30T08:35:43;2.30;99.90
6333;DHT22;3199;49.102;8.856;2024-01-30T08:38:08;2.40;99.90
6333;DHT22;3199;49.102;8.856;2024-01-30T08:40:34;2.50;99.90
6333;DHT22;3199;49.102;8.856;2024-01-30T08:43:00;2.60;99.90
6333;DHT22;3199;49.102;8.856;2024-01-30T08:45:25;2.70;99.90
6333;DHT22;3199;49.102;8.856;2024-01-30T08:47:51;2.80;99.90
6333;DHT22;3199;49.102;8.856;2024-01-30T08:50:16;2.90;99.90
6333;DHT22;3199;49.102;8.856;2024-01-30T08:52:42;3.10;99.90
6333;DHT22;3199;49.102;8.856;2024-01-30T08:55:07;3.20;99.90
6333;DHT22;3199;49.102;8.856;2024-01-30T08:57:33;3.40;99.90
6333;DHT22;3199;49.102;8.856;2024-01-30T08:59:58;3.50;99.90
6333;DHT22;3199;49.102;8.856;2024-01-30T09:02:24;3.70;99.90
6333;DHT22;3199;49.102;8.856;2024-01-30T09:04:50;3.90;99.90
6333;DHT22;3199;49.102;8.856;2024-01-30T09:07:15;4.10;99.90
6333;DHT22;3199;49.102;8.856;2024-01-30T09:09:41;4.20;99.90
6333;DHT22;3199;49.102;8.856;2024-01-30T09:12:07;4.30;99.90
6333;DHT22;3199;49.102;8.856;2024-01-30T09:14:38;4.30;99.90
6333;DHT22;3199;49.102;8.856;2024-01-30T09:17:04;4.40;99.90
6333;DHT22;3199;49.102;8.856;2024-01-30T09:19:30;4.50;99.90
6333;DHT22;3199;49.102;8.856;2024-01-30T09:21:55;4.60;99.90
6333;DHT22;3199;49.102;8.856;2024-01-30T09:24:21;4.70;99.90
6333;DHT22;3199;49.102;8.856;2024-01-30T09:26:46;4.70;99.90
6333;DHT22;3199;49.102;8.856;2024-01-30T09:29:12;4.80;99.90
6333;DHT22;3199;49.102;8.856;2024-01-30T09:31:37;4.90;99.90
6333;DHT22;3199;49.102;8.856;2024-01-30T09:34:03;4.90;99.90
6333;DHT22;3199;49.102;8.856;2024-01-30T09:36:29;4.90;99.90
6333;DHT22;3199;49.102;8.856;2024-01-30T09:38:54;4.90;99.90
6333;DHT22;3199;49.102;8.856;2024-01-30T09:41:20;5.00;99.90
6333;DHT22;3199;49.102;8.856;2024-01-30T09:43:50;5.00;99.90
6333;DHT22;3199;49.102;8.856;2024-01-30T09:46:17;5.00;99.90
6333;DHT22;3199;49.102;8.856;2024-01-30T09:48:46;4.90;99.90
6333;DHT22;3199;49.102;8.856;2024-01-30T09:51:12;4.90;99.90
6333;DHT22;3199;49.102;8.856;2024-01-30T09:53:40;4.80;99.90
6333;DHT22;3199;49.102;8.856;2024-01-30T09:56:07;4.90;99.90
6333;DHT22;3199;49.102;8.856;2024-01-30T09:58:33;4.90;99.90
6333;DHT22;3199;49.102;8.856;2024-01-30T10:00:58;4.90;99.90
6333;DHT22;3199;49.102;8.856;2024-01-30T10:03:24;4.90;99.90
6333;DHT22;3199;49.102;8.856;2024-01-30T10:05:51;4.90;99.90
6333;DHT22;3199;49.102;8.856;2024-01-30T10:08:20;5.00;99.90
6333;DHT22;3199;49.102;8.856;2024-01-30T10:10:47;5.10;99.90
6333;DHT22;3199;49.102;8.856;2024-01-30T10:13:12;5.10;99.90
6333;DHT22;3199;49.102;8.856;2024-01-30T10:15:38;5.20;99.90
6333;DHT22;3199;49.102;8.856;2024-01-30T10:18:04;5.30;99.90
6333;DHT22;3199;49.102;8.856;2024-01-30T10:20:32;5.40;99.90
6333;DHT22;3199;49.102;8.856;2024-01-30T10:22:57;5.50;99.90
6333;DHT22;3199;49.102;8.856;2024-01-30T10:25:23;5.60;99.90
6333;DHT22;3199;49.102;8.856;2024-01-30T10:27:53;5.70;99.90
6333;DHT22;3199;49.102;8.856;2024-01-30T10:30:19;5.80;99.90
6333;DHT22;3199;49.102;8.856;2024-01-30T10:32:45;5.90;99.90
6333;DHT22;3199;49.102;8.856;2024-01-30T10:35:10;5.90;99.90
6333;DHT22;3199;49.102;8.856;2024-01-30T10:37:36;6.00;99.90
6333;DHT22;3199;49.102;8.856;2024-01-30T10:40:03;6.10;99.90
6333;DHT22;3199;49.102;8.856;2024-01-30T10:42:32;6.10;99.90
6333;DHT22;3199;49.102;8.856;2024-01-30T10:45:06;6.20;99.90
6333;DHT22;3199;49.102;8.856;2024-01-30T10:47:36;6.20;99.90
6333;DHT22;3199;49.102;8.856;2024-01-30T10:50:04;6.30;99.90
6333;DHT22;3199;49.102;8.856;2024-01-30T10:52:31;6.30;99.90
6333;DHT22;3199;49.102;8.856;2024-01-30T10:54:58;6.30;99.90
6333;DHT22;3199;49.102;8.856;2024-01-30T10:57:26;6.30;99.90
6333;DHT22;3199;49.102;8.856;2024-01-30T10:59:59;6.30;99.90
6333;DHT22;3199;49.102;8.856;2024-01-30T11:02:26;6.30;99.90
6333;DHT22;3199;49.102;8.856;2024-01-30T11:04:59;6.40;99.90
6333;DHT22;3199;49.102;8.856;2024-01-30T11:07:27;6.40;99.90
6333;DHT22;3199;49.102;8.856;2024-01-30T11:09:54;6.40;99.90
6333;DHT22;3199;49.102;8.856;2024-01-30T11:12:33;6.50;99.90
6333;DHT22;3199;49.102;8.856;2024-01-30T11:15:10;6.50;99.90
6333;DHT22;3199;49.102;8.856;2024-01-30T11:20:22;6.60;99.90
6333;DHT22;3199;49.102;8.856;2024-01-30T11:22:55;6.70;99.90
6333;DHT22;3199;49.102;8.856;2024-01-30T11:25:22;6.80;99.90
6333;DHT22;3199;49.102;8.856;2024-01-30T11:27:50;6.80;99.90
6333;DHT22;3199;49.102;8.856;2024-01-30T11:33:08;7.10;99.90
6333;DHT22;3199;49.102;8.856;2024-01-30T11:35:44;7.20;99.90
6333;DHT22;3199;49.102;8.856;2024-01-30T11:38:14;7.40;99.90
6333;DHT22;3199;49.102;8.856;2024-01-30T11:40:40;7.50;99.90
6333;DHT22;3199;49.102;8.856;2024-01-30T11:43:08;7.60;99.90
6333;DHT22;3199;49.102;8.856;2024-01-30T11:45:35;7.70;99.90
6333;DHT22;3199;49.102;8.856;2024-01-30T11:48:01;7.80;99.90
6333;DHT22;3199;49.102;8.856;2024-01-30T11:50:29;7.90;99.90
6333;DHT22;3199;49.102;8.856;2024-01-30T11:52:55;8.00;99.90
6333;DHT22;3199;49.102;8.856;2024-01-30T11:55:20;8.10;99.90
6333;DHT22;3199;49.102;8.856;2024-01-30T11:57:46;8.20;99.90
6333;DHT22;3199;49.102;8.856;2024-01-30T12:00:15;8.20;99.90
6333;DHT22;3199;49.102;8.856;2024-01-30T12:02:42;8.30;99.90
6333;DHT22;3199;49.102;8.856;2024-01-30T12:05:08;8.30;99.90
6333;DHT22;3199;49.102;8.856;2024-01-30T12:07:33;8.50;99.90
6333;DHT22;3199;49.102;8.856;2024-01-30T12:09:59;8.60;99.90
6333;DHT22;3199;49.102;8.856;2024-01-30T12:12:26;8.60;99.90
6333;DHT22;3199;49.102;8.856;2024-01-30T12:14:52;8.70;99.90
6333;DHT22;3199;49.102;8.856;2024-01-30T12:17:44;8.80;99.90
6333;DHT22;3199;49.102;8.856;2024-01-30T12:20:14;8.80;99.90
6333;DHT22;3199;49.102;8.856;2024-01-30T12:22:41;9.00;99.90
6333;DHT22;3199;49.102;8.856;2024-01-30T12:25:08;9.10;99.90
6333;DHT22;3199;49.102;8.856;2024-01-30T12:27:35;9.10;99.90
6333;DHT22;3199;49.102;8.856;2024-01-30T12:30:00;9.10;99.90
6333;DHT22;3199;49.102;8.856;2024-01-30T12:32:26;9.10;99.90
6333;DHT22;3199;49.102;8.856;2024-01-30T12:34:55;9.20;99.90
6333;DHT22;3199;49.102;8.856;2024-01-30T12:37:22;9.20;99.90
6333;DHT22;3199;49.102;8.856;2024-01-30T12:39:51;9.20;99.90
6333;DHT22;3199;49.102;8.856;2024-01-30T12:42:16;9.20;99.90
6333;DHT22;3199;49.102;8.856;2024-01-30T12:44:43;9.20;99.90
6333;DHT22;3199;49.102;8.856;2024-01-30T12:47:11;9.20;99.90
6333;DHT22;3199;49.102;8.856;2024-01-30T12:49:37;9.20;99.90
6333;DHT22;3199;49.102;8.856;2024-01-30T12:52:02;9.30;99.90
6333;DHT22;3199;49.102;8.856;2024-01-30T12:54:28;9.40;99.90
6333;DHT22;3199;49.102;8.856;2024-01-30T12:56:53;9.60;99.90
6333;DHT22;3199;49.102;8.856;2024-01-30T12:59:19;9.60;99.90
6333;DHT22;3199;49.102;8.856;2024-01-30T13:01:45;9.80;99.90
6333;DHT22;3199;49.102;8.856;2024-01-30T13:04:10;9.80;99.90
6333;DHT22;3199;49.102;8.856;2024-01-30T13:06:36;9.90;99.90
6333;DHT22;3199;49.102;8.856;2024-01-30T13:09:02;9.90;99.90
6333;DHT22;3199;49.102;8.856;2024-01-30T13:11:28;10.00;99.90
6333;DHT22;3199;49.102;8.856;2024-01-30T13:13:53;10.00;99.90
6333;DHT22;3199;49.102;8.856;2024-01-30T13:16:19;10.10;99.90
6333;DHT22;3199;49.102;8.856;2024-01-30T13:18:44;10.10;99.90
6333;DHT22;3199;49.102;8.856;2024-01-30T13:21:10;10.10;99.90
6333;DHT22;3199;49.102;8.856;2024-01-30T13:23:35;10.20;99.90
6333;DHT22;3199;49.102;8.856;2024-01-30T13:26:01;10.30;99.90
6333;DHT22;3199;49.102;8.856;2024-01-30T13:28:27;10.30;99.90
6333;DHT22;3199;49.102;8.856;2024-01-30T13:30:53;10.20;99.90
6333;DHT22;3199;49.102;8.856;2024-01-30T13:33:18;10.20;99.90
6333;DHT22;3199;49.102;8.856;2024-01-30T13:35:44;10.10;99.90
6333;DHT22;3199;49.102;8.856;2024-01-30T13:38:10;10.10;99.90
6333;DHT22;3199;49.102;8.856;2024-01-30T13:40:35;10.00;99.90
6333;DHT22;3199;49.102;8.856;2024-01-30T13:43:01;10.00;99.90
6333;DHT22;3199;49.102;8.856;2024-01-30T13:45:27;10.00;99.90
6333;DHT22;3199;49.102;8.856;2024-01-30T13:47:52;10.00;99.90
6333;DHT22;3199;49.102;8.856;2024-01-30T13:50:18;10.00;99.90
6333;DHT22;3199;49.102;8.856;2024-01-30T13:52:43;10.00;99.90
6333;DHT22;3199;49.102;8.856;2024-01-30T13:55:09;10.10;99.90
6333;DHT22;3199;49.102;8.856;2024-01-30T13:57:36;10.10;99.90
6333;DHT22;3199;49.102;8.856;2024-01-30T14:00:03;10.10;99.90
6333;DHT22;3199;49.102;8.856;2024-01-30T14:02:32;10.10;99.90
6333;DHT22;3199;49.102;8.856;2024-01-30T14:04:57;10.20;99.90
6333;DHT22;3199;49.102;8.856;2024-01-30T14:07:23;10.20;99.90
6333;DHT22;3199;49.102;8.856;2024-01-30T14:09:49;10.20;99.90
6333;DHT22;3199;49.102;8.856;2024-01-30T14:12:14;10.20;99.90
6333;DHT22;3199;49.102;8.856;2024-01-30T14:14:40;10.10;99.90
6333;DHT22;3199;49.102;8.856;2024-01-30T14:17:06;10.10;99.90
6333;DHT22;3199;49.102;8.856;2024-01-30T14:19:33;10.00;99.90
6333;DHT22;3199;49.102;8.856;2024-01-30T14:21:58;10.10;99.90
6333;DHT22;3199;49.102;8.856;2024-01-30T14:24:24;10.10;99.90
6333;DHT22;3199;49.102;8.856;2024-01-30T14:26:49;10.10;99.90
6333;DHT22;3199;49.102;8.856;2024-01-30T14:29:15;10.20;99.90
6333;DHT22;3199;49.102;8.856;2024-01-30T14:31:41;10.20;99.90
6333;DHT22;3199;49.102;8.856;2024-01-30T14:34:06;10.20;99.90
6333;DHT22;3199;49.102;8.856;2024-01-30T14:36:33;10.20;99.90
6333;DHT22;3199;49.102;8.856;2024-01-30T14:38:59;10.20;99.90
6333;DHT22;3199;49.102;8.856;2024-01-30T14:41:24;10.20;99.90
6333;DHT22;3199;49.102;8.856;2024-01-30T14:43:50;10.20;99.90
6333;DHT22;3199;49.102;8.856;2024-01-30T14:46:15;10.20;99.90
6333;DHT22;3199;49.102;8.856;2024-01-30T14:48:41;10.20;99.90
6333;DHT22;3199;49.102;8.856;2024-01-30T14:51:08;10.20;99.90
6333;DHT22;3199;49.102;8.856;2024-01-30T14:53:33;10.20;99.90
6333;DHT22;3199;49.102;8.856;2024-01-30T14:55:59;10.10;99.90
6333;DHT22;3199;49.102;8.856;2024-01-30T14:58:25;10.10;99.90
6333;DHT22;3199;49.102;8.856;2024-01-30T15:00:50;10.00;99.90
6333;DHT22;3199;49.102;8.856;2024-01-30T15:03:16;10.00;99.90
6333;DHT22;3199;49.102;8.856;2024-01-30T15:05:41;9.90;99.90
6333;DHT22;3199;49.102;8.856;2024-01-30T15:08:07;9.90;99.90
6333;DHT22;3199;49.102;8.856;2024-01-30T15:10:33;9.80;99.90
6333;DHT22;3199;49.102;8.856;2024-01-30T15:12:58;9.80;99.90
6333;DHT22;3199;49.102;8.856;2024-01-30T15:15:24;9.80;99.90
6333;DHT22;3199;49.102;8.856;2024-01-30T15:17:49;9.80;99.90
6333;DHT22;3199;49.102;8.856;2024-01-30T15:20:15;9.80;99.90
6333;DHT22;3199;49.102;8.856;2024-01-30T15:22:43;9.70;99.90
6333;DHT22;3199;49.102;8.856;2024-01-30T15:25:10;9.70;99.90
6333;DHT22;3199;49.102;8.856;2024-01-30T15:27:36;9.70;99.90
6333;DHT22;3199;49.102;8.856;2024-01-30T15:30:01;9.70;99.90
6333;DHT22;3199;49.102;8.856;2024-01-30T15:32:27;9.60;99.90
6333;DHT22;3199;49.102;8.856;2024-01-30T15:34:52;9.50;99.90
6333;DHT22;3199;49.102;8.856;2024-01-30T15:37:19;9.50;99.90
6333;DHT22;3199;49.102;8.856;2024-01-30T15:39:45;9.50;99.90
6333;DHT22;3199;49.102;8.856;2024-01-30T15:42:10;9.50;99.90
6333;DHT22;3199;49.102;8.856;2024-01-30T15:44:36;9.40;99.90
6333;DHT22;3199;49.102;8.856;2024-01-30T15:47:02;9.40;99.90
6333;DHT22;3199;49.102;8.856;2024-01-30T15:49:27;9.40;99.90
6333;DHT22;3199;49.102;8.856;2024-01-30T15:51:53;9.30;99.90
6333;DHT22;3199;49.102;8.856;2024-01-30T15:54:18;9.30;99.90
6333;DHT22;3199;49.102;8.856;2024-01-30T15:56:44;9.20;99.90
6333;DHT22;3199;49.102;8.856;2024-01-30T15:59:10;9.20;99.90
6333;DHT22;3199;49.102;8.856;2024-01-30T16:01:35;9.20;99.90
6333;DHT22;3199;49.102;8.856;2024-01-30T16:04:01;9.10;99.90
6333;DHT22;3199;49.102;8.856;2024-01-30T16:06:26;9.10;99.90
6333;DHT22;3199;49.102;8.856;2024-01-30T16:08:52;9.00;99.90
6333;DHT22;3199;49.102;8.856;2024-01-30T16:11:17;8.90;99.90
6333;DHT22;3199;49.102;8.856;2024-01-30T16:13:43;8.90;99.90